sensor_id;sensor_type;location;lat;lon;timestamp;pressure;altitude;pressure_sealevel;temperature;humidity
1652;BME280;823;49.028;8.454;2022-12-18T00:00:48;101668.53;;;-4.62;57.65
1652;BME280;823;49.028;8.454;2022-12-18T00:05:52;101675.78;;;-4.51;57.75
1652;BME280;823;49.028;8.454;2022-12-18T00:10:52;101674.00;;;-4.70;58.18
1652;BME280;823;49.028;8.454;2022-12-18T00:15:53;101685.00;;;-4.52;57.31
1652;BME280;823;49.028;8.454;2022-12-18T00:20:53;101667.25;;;-4.53;57.94
1652;BME280;823;49.028;8.454;2022-12-18T00:25:53;101668.47;;;-4.45;57.94
1652;BME280;823;49.028;8.454;2022-12-18T00:31:21;101673.56;;;-4.62;57.73
1652;BME280;823;49.028;8.454;2022-12-18T00:36:31;101687.28;;;-4.56;57.61
1652;BME280;823;49.028;8.454;2022-12-18T00:41:31;101688.72;;;-4.62;57.69
1652;BME280;823;49.028;8.454;2022-12-18T00:46:51;101693.59;;;-4.48;57.46
1652;BME280;823;49.028;8.454;2022-12-18T00:51:51;101680.81;;;-4.51;58.03
1652;BME280;823;49.028;8.454;2022-12-18T00:56:51;101677.22;;;-4.38;57.51
1652;BME280;823;49.028;8.454;2022-12-18T01:01:52;101679.25;;;-4.31;57.87
1652;BME280;823;49.028;8.454;2022-12-18T01:06:52;101682.81;;;-4.28;58.06
1652;BME280;823;49.028;8.454;2022-12-18T01:11:52;101674.66;;;-4.22;57.50
1652;BME280;823;49.028;8.454;2022-12-18T01:16:53;101672.06;;;-4.23;57.17
1652;BME280;823;49.028;8.454;2022-12-18T01:21:53;101689.75;;;-4.23;57.47
1652;BME280;823;49.028;8.454;2022-12-18T01:26:53;101677.97;;;-4.23;57.29
1652;BME280;823;49.028;8.454;2022-12-18T01:31:57;101666.75;;;-4.28;57.10
1652;BME280;823;49.028;8.454;2022-12-18T01:36:57;101676.16;;;-4.25;57.36
1652;BME280;823;49.028;8.454;2022-12-18T01:42:10;101669.38;;;-4.27;56.97
1652;BME280;823;49.028;8.454;2022-12-18T01:47:19;101681.00;;;-4.30;56.57
1652;BME280;823;49.028;8.454;2022-12-18T01:52:21;101691.88;;;-4.31;56.82
1652;BME280;823;49.028;8.454;2022-12-18T01:57:23;101689.56;;;-4.27;56.33
1652;BME280;823;49.028;8.454;2022-12-18T02:02:26;101680.53;;;-4.39;56.69
1652;BME280;823;49.028;8.454;2022-12-18T02:07:34;101684.88;;;-4.37;56.40
1652;BME280;823;49.028;8.454;2022-12-18T02:18:10;101684.59;;;-4.43;56.71
1652;BME280;823;49.028;8.454;2022-12-18T02:23:51;101691.28;;;-4.43;56.34
1652;BME280;823;49.028;8.454;2022-12-18T02:29:01;101686.09;;;-4.47;56.13
1652;BME280;823;49.028;8.454;2022-12-18T02:34:05;101689.81;;;-4.56;56.55
1652;BME280;823;49.028;8.454;2022-12-18T02:39:09;101700.56;;;-4.60;55.89
1652;BME280;823;49.028;8.454;2022-12-18T02:44:12;101694.41;;;-4.66;56.18
1652;BME280;823;49.028;8.454;2022-12-18T02:55:20;101697.63;;;-4.68;56.14
1652;BME280;823;49.028;8.454;2022-12-18T03:05:51;101696.22;;;-4.63;56.67
1652;BME280;823;49.028;8.454;2022-12-18T03:10:58;101714.66;;;-4.64;57.03
1652;BME280;823;49.028;8.454;2022-12-18T03:16:02;101709.69;;;-4.63;57.23
1652;BME280;823;49.028;8.454;2022-12-18T03:21:06;101695.03;;;-4.70;56.98
1652;BME280;823;49.028;8.454;2022-12-18T03:26:10;101718.88;;;-4.65;56.74
1652;BME280;823;49.028;8.454;2022-12-18T03:31:14;101700.09;;;-4.70;57.17
1652;BME280;823;49.028;8.454;2022-12-18T03:36:14;101691.41;;;-4.75;56.88
1652;BME280;823;49.028;8.454;2022-12-18T03:52:05;101690.81;;;-4.87;57.25
1652;BME280;823;49.028;8.454;2022-12-18T03:57:11;101693.09;;;-4.92;57.15
1652;BME280;823;49.028;8.454;2022-12-18T04:02:16;101704.06;;;-4.91;57.22
1652;BME280;823;49.028;8.454;2022-12-18T04:07:18;101685.28;;;-4.97;57.29
1652;BME280;823;49.028;8.454;2022-12-18T04:12:20;101682.06;;;-4.94;56.73
1652;BME280;823;49.028;8.454;2022-12-18T04:17:21;101688.59;;;-4.98;56.86
1652;BME280;823;49.028;8.454;2022-12-18T04:22:21;101686.00;;;-4.99;57.31
1652;BME280;823;49.028;8.454;2022-12-18T04:27:22;101684.03;;;-5.05;57.43
1652;BME280;823;49.028;8.454;2022-12-18T04:32:22;101684.97;;;-5.03;57.25
1652;BME280;823;49.028;8.454;2022-12-18T04:37:22;101686.69;;;-5.02;57.18
1652;BME280;823;49.028;8.454;2022-12-18T04:42:23;101693.34;;;-5.04;57.21
1652;BME280;823;49.028;8.454;2022-12-18T04:47:23;101697.03;;;-4.97;57.42
1652;BME280;823;49.028;8.454;2022-12-18T04:52:24;101700.44;;;-4.97;57.38
1652;BME280;823;49.028;8.454;2022-12-18T04:57:24;101690.00;;;-5.03;57.74
1652;BME280;823;49.028;8.454;2022-12-18T05:02:24;101696.50;;;-5.08;57.47
1652;BME280;823;49.028;8.454;2022-12-18T05:07:25;101703.25;;;-5.07;57.73
1652;BME280;823;49.028;8.454;2022-12-18T05:12:25;101699.00;;;-5.08;57.87
1652;BME280;823;49.028;8.454;2022-12-18T05:17:26;101706.31;;;-5.13;58.09
1652;BME280;823;49.028;8.454;2022-12-18T05:22:26;101711.44;;;-5.11;58.40
1652;BME280;823;49.028;8.454;2022-12-18T05:27:27;101723.63;;;-5.04;58.50
1652;BME280;823;49.028;8.454;2022-12-18T05:32:27;101722.50;;;-4.92;58.81
1652;BME280;823;49.028;8.454;2022-12-18T05:37:28;101718.94;;;-4.80;59.07
1652;BME280;823;49.028;8.454;2022-12-18T05:42:28;101718.00;;;-4.65;58.83
1652;BME280;823;49.028;8.454;2022-12-18T05:47:28;101710.91;;;-4.72;59.60
1652;BME280;823;49.028;8.454;2022-12-18T05:52:30;101711.59;;;-4.58;59.65
1652;BME280;823;49.028;8.454;2022-12-18T05:57:30;101709.53;;;-4.49;59.33
1652;BME280;823;49.028;8.454;2022-12-18T06:02:30;101721.81;;;-4.39;59.53
1652;BME280;823;49.028;8.454;2022-12-18T06:07:31;101720.25;;;-4.37;59.89
1652;BME280;823;49.028;8.454;2022-12-18T06:12:31;101732.22;;;-4.33;59.96
1652;BME280;823;49.028;8.454;2022-12-18T06:17:34;101744.03;;;-4.15;60.02
1652;BME280;823;49.028;8.454;2022-12-18T06:22:34;101749.59;;;-4.04;59.67
1652;BME280;823;49.028;8.454;2022-12-18T06:27:35;101740.00;;;-3.94;59.64
1652;BME280;823;49.028;8.454;2022-12-18T06:32:35;101764.94;;;-3.83;59.72
1652;BME280;823;49.028;8.454;2022-12-18T06:37:35;101772.03;;;-3.76;59.52
1652;BME280;823;49.028;8.454;2022-12-18T06:42:36;101777.16;;;-3.74;59.96
1652;BME280;823;49.028;8.454;2022-12-18T06:47:36;101780.19;;;-3.64;59.71
1652;BME280;823;49.028;8.454;2022-12-18T06:52:38;101789.22;;;-3.51;59.44
1652;BME280;823;49.028;8.454;2022-12-18T06:57:40;101783.31;;;-3.51;59.00
1652;BME280;823;49.028;8.454;2022-12-18T07:02:40;101776.94;;;-3.43;59.22
1652;BME280;823;49.028;8.454;2022-12-18T07:07:40;101790.66;;;-3.38;58.83
1652;BME280;823;49.028;8.454;2022-12-18T07:12:41;101796.53;;;-3.39;58.74
1652;BME280;823;49.028;8.454;2022-12-18T07:17:41;101784.09;;;-3.34;58.92
1652;BME280;823;49.028;8.454;2022-12-18T07:22:41;101796.00;;;-3.32;58.37
1652;BME280;823;49.028;8.454;2022-12-18T07:27:42;101794.28;;;-3.33;58.62
1652;BME280;823;49.028;8.454;2022-12-18T07:32:42;101791.47;;;-3.39;58.88
1652;BME280;823;49.028;8.454;2022-12-18T07:37:42;101807.94;;;-3.29;58.36
1652;BME280;823;49.028;8.454;2022-12-18T07:42:43;101808.59;;;-3.33;58.84
1652;BME280;823;49.028;8.454;2022-12-18T07:47:43;101808.03;;;-3.46;58.95
1652;BME280;823;49.028;8.454;2022-12-18T07:52:43;101818.69;;;-3.15;58.15
1652;BME280;823;49.028;8.454;2022-12-18T07:57:44;101819.41;;;-3.00;58.09
1652;BME280;823;49.028;8.454;2022-12-18T08:02:44;101827.84;;;-2.99;57.95
1652;BME280;823;49.028;8.454;2022-12-18T08:07:44;101842.63;;;-3.09;58.20
1652;BME280;823;49.028;8.454;2022-12-18T08:12:45;101846.16;;;-3.05;58.25
1652;BME280;823;49.028;8.454;2022-12-18T08:17:45;101841.31;;;-3.00;57.87
1652;BME280;823;49.028;8.454;2022-12-18T08:22:46;101839.56;;;-2.83;57.37
1652;BME280;823;49.028;8.454;2022-12-18T08:27:46;101833.97;;;-2.76;57.32
1652;BME280;823;49.028;8.454;2022-12-18T08:32:46;101838.34;;;-2.92;56.99
1652;BME280;823;49.028;8.454;2022-12-18T08:37:47;101821.09;;;-2.81;57.20
1652;BME280;823;49.028;8.454;2022-12-18T08:42:47;101813.03;;;-2.92;57.21
1652;BME280;823;49.028;8.454;2022-12-18T08:48:06;101807.81;;;-2.95;57.76
1652;BME280;823;49.028;8.454;2022-12-18T08:53:06;101798.50;;;-2.76;56.99
1652;BME280;823;49.028;8.454;2022-12-18T08:58:07;101798.91;;;-2.67;57.17
1652;BME280;823;49.028;8.454;2022-12-18T09:03:25;101791.78;;;-2.56;57.11
1652;BME280;823;49.028;8.454;2022-12-18T09:08:26;101779.84;;;-2.78;57.18
1652;BME280;823;49.028;8.454;2022-12-18T09:13:26;101775.84;;;-2.73;56.20
1652;BME280;823;49.028;8.454;2022-12-18T09:18:27;101782.91;;;-2.85;56.56
1652;BME280;823;49.028;8.454;2022-12-18T09:23:27;101804.28;;;-2.79;56.61
1652;BME280;823;49.028;8.454;2022-12-18T09:28:27;101806.03;;;-2.78;56.68
1652;BME280;823;49.028;8.454;2022-12-18T09:33:27;101814.44;;;-2.79;56.00
1652;BME280;823;49.028;8.454;2022-12-18T09:38:28;101823.97;;;-2.73;56.60
1652;BME280;823;49.028;8.454;2022-12-18T09:43:47;101839.81;;;-2.58;56.48
1652;BME280;823;49.028;8.454;2022-12-18T09:48:51;101827.38;;;-2.53;56.93
1652;BME280;823;49.028;8.454;2022-12-18T09:53:56;101838.13;;;-2.39;56.72
1652;BME280;823;49.028;8.454;2022-12-18T09:59:01;101840.91;;;-2.33;56.60
1652;BME280;823;49.028;8.454;2022-12-18T10:04:02;101834.97;;;-2.33;56.11
1652;BME280;823;49.028;8.454;2022-12-18T10:09:11;101857.19;;;-2.28;56.14
1652;BME280;823;49.028;8.454;2022-12-18T10:14:32;101858.31;;;-2.21;56.10
1652;BME280;823;49.028;8.454;2022-12-18T10:24:54;101843.28;;;-2.16;55.98
1652;BME280;823;49.028;8.454;2022-12-18T10:29:57;101834.50;;;-2.25;56.47
1652;BME280;823;49.028;8.454;2022-12-18T10:34:58;101829.22;;;-2.10;56.09
1652;BME280;823;49.028;8.454;2022-12-18T10:40:18;101815.44;;;-1.95;55.99
1652;BME280;823;49.028;8.454;2022-12-18T10:45:19;101828.38;;;-1.89;56.23
1652;BME280;823;49.028;8.454;2022-12-18T10:50:29;101817.78;;;-2.00;56.57
1652;BME280;823;49.028;8.454;2022-12-18T10:55:39;101812.38;;;-1.88;56.27
1652;BME280;823;49.028;8.454;2022-12-18T11:00:44;101806.84;;;-1.57;56.52
1652;BME280;823;49.028;8.454;2022-12-18T11:05:44;101804.16;;;-1.39;56.54
1652;BME280;823;49.028;8.454;2022-12-18T11:10:46;101819.13;;;-1.24;56.13
1652;BME280;823;49.028;8.454;2022-12-18T11:15:48;101823.88;;;-1.10;55.11
1652;BME280;823;49.028;8.454;2022-12-18T11:21:00;101813.34;;;-1.20;54.46
1652;BME280;823;49.028;8.454;2022-12-18T11:26:05;101807.31;;;-1.00;54.47
1652;BME280;823;49.028;8.454;2022-12-18T11:31:24;101811.34;;;-1.06;54.32
1652;BME280;823;49.028;8.454;2022-12-18T11:36:30;101802.81;;;-1.08;53.64
1652;BME280;823;49.028;8.454;2022-12-18T11:41:49;101803.03;;;-1.01;53.69
1652;BME280;823;49.028;8.454;2022-12-18T11:47:15;101798.03;;;-0.98;53.73
1652;BME280;823;49.028;8.454;2022-12-18T11:52:29;101797.44;;;-0.93;53.91
1652;BME280;823;49.028;8.454;2022-12-18T11:57:47;101774.72;;;-0.88;54.24
1652;BME280;823;49.028;8.454;2022-12-18T12:03:06;101769.50;;;-0.93;54.00
1652;BME280;823;49.028;8.454;2022-12-18T12:35:18;101759.94;;;-0.26;53.56
1652;BME280;823;49.028;8.454;2022-12-18T12:40:26;101764.72;;;-0.09;53.69
1652;BME280;823;49.028;8.454;2022-12-18T12:45:37;101758.88;;;-0.07;53.47
1652;BME280;823;49.028;8.454;2022-12-18T12:50:40;101760.31;;;0.12;53.52
1652;BME280;823;49.028;8.454;2022-12-18T12:55:41;101753.63;;;0.14;53.47
1652;BME280;823;49.028;8.454;2022-12-18T13:00:53;101747.25;;;0.29;53.19
1652;BME280;823;49.028;8.454;2022-12-18T13:06:00;101737.47;;;0.41;53.37
1652;BME280;823;49.028;8.454;2022-12-18T13:11:03;101721.81;;;0.29;52.77
1652;BME280;823;49.028;8.454;2022-12-18T13:16:24;101715.41;;;0.40;52.65
1652;BME280;823;49.028;8.454;2022-12-18T13:21:33;101725.03;;;0.50;52.48
1652;BME280;823;49.028;8.454;2022-12-18T13:26:34;101702.16;;;0.52;52.60
1652;BME280;823;49.028;8.454;2022-12-18T13:36:38;101686.47;;;0.38;52.71
1652;BME280;823;49.028;8.454;2022-12-18T13:41:40;101681.47;;;0.41;52.79
1652;BME280;823;49.028;8.454;2022-12-18T13:46:45;101677.31;;;0.43;52.89
1652;BME280;823;49.028;8.454;2022-12-18T13:51:51;101680.56;;;0.39;53.18
1652;BME280;823;49.028;8.454;2022-12-18T13:56:52;101672.31;;;0.19;53.79
1652;BME280;823;49.028;8.454;2022-12-18T14:07:01;101678.75;;;0.35;53.16
1652;BME280;823;49.028;8.454;2022-12-18T14:12:03;101680.56;;;0.39;53.71
1652;BME280;823;49.028;8.454;2022-12-18T14:17:22;101668.25;;;0.24;53.72
1652;BME280;823;49.028;8.454;2022-12-18T14:22:25;101674.09;;;0.22;54.13
1652;BME280;823;49.028;8.454;2022-12-18T14:27:30;101677.41;;;0.19;54.26
1652;BME280;823;49.028;8.454;2022-12-18T14:32:30;101665.75;;;0.26;54.21
1652;BME280;823;49.028;8.454;2022-12-18T14:37:30;101668.81;;;0.14;54.69
1652;BME280;823;49.028;8.454;2022-12-18T14:42:31;101672.38;;;0.21;54.54
1652;BME280;823;49.028;8.454;2022-12-18T14:47:31;101677.16;;;0.10;54.81
1652;BME280;823;49.028;8.454;2022-12-18T14:52:32;101661.72;;;0.05;54.88
1652;BME280;823;49.028;8.454;2022-12-18T14:57:36;101654.09;;;0.05;54.83
1652;BME280;823;49.028;8.454;2022-12-18T15:02:38;101641.88;;;-0.07;55.40
1652;BME280;823;49.028;8.454;2022-12-18T15:07:50;101649.59;;;-0.04;55.16
1652;BME280;823;49.028;8.454;2022-12-18T15:18:02;101645.97;;;-0.12;55.40
1652;BME280;823;49.028;8.454;2022-12-18T15:23:03;101646.78;;;-0.13;55.71
1652;BME280;823;49.028;8.454;2022-12-18T15:28:04;101649.09;;;-0.21;55.68
1652;BME280;823;49.028;8.454;2022-12-18T15:33:24;101643.03;;;-0.24;55.89
1652;BME280;823;49.028;8.454;2022-12-18T15:38:26;101640.34;;;-0.29;56.17
1652;BME280;823;49.028;8.454;2022-12-18T15:43:26;101638.53;;;-0.33;56.38
1652;BME280;823;49.028;8.454;2022-12-18T15:48:50;101647.59;;;-0.41;56.45
1652;BME280;823;49.028;8.454;2022-12-18T15:53:54;101641.66;;;-0.40;56.87
1652;BME280;823;49.028;8.454;2022-12-18T15:58:55;101645.84;;;-0.42;57.11
1652;BME280;823;49.028;8.454;2022-12-18T16:03:56;101647.31;;;-0.49;57.23
1652;BME280;823;49.028;8.454;2022-12-18T16:08:57;101647.09;;;-0.57;58.06
1652;BME280;823;49.028;8.454;2022-12-18T16:13:57;101644.97;;;-0.44;57.39
1652;BME280;823;49.028;8.454;2022-12-18T16:18:57;101648.75;;;-0.57;57.94
1652;BME280;823;49.028;8.454;2022-12-18T16:23:58;101648.00;;;-0.55;57.21
1652;BME280;823;49.028;8.454;2022-12-18T16:28:58;101647.09;;;-0.57;57.48
1652;BME280;823;49.028;8.454;2022-12-18T16:34:21;101646.50;;;-0.74;57.75
1652;BME280;823;49.028;8.454;2022-12-18T16:39:22;101639.47;;;-0.57;57.45
1652;BME280;823;49.028;8.454;2022-12-18T16:44:22;101632.66;;;-0.58;57.57
1652;BME280;823;49.028;8.454;2022-12-18T16:49:23;101636.91;;;-0.82;58.48
1652;BME280;823;49.028;8.454;2022-12-18T16:54:23;101635.94;;;-0.60;57.66
1652;BME280;823;49.028;8.454;2022-12-18T16:59:24;101633.56;;;-0.56;57.34
1652;BME280;823;49.028;8.454;2022-12-18T17:04:25;101630.91;;;-0.59;57.75
1652;BME280;823;49.028;8.454;2022-12-18T17:09:26;101620.03;;;-0.55;57.27
1652;BME280;823;49.028;8.454;2022-12-18T17:14:26;101623.38;;;-0.56;57.56
1652;BME280;823;49.028;8.454;2022-12-18T17:19:27;101620.13;;;-0.52;57.42
1652;BME280;823;49.028;8.454;2022-12-18T17:24:27;101618.25;;;-0.57;57.89
1652;BME280;823;49.028;8.454;2022-12-18T17:29:27;101618.91;;;-0.63;58.18
1652;BME280;823;49.028;8.454;2022-12-18T17:34:28;101621.56;;;-0.60;57.75
1652;BME280;823;49.028;8.454;2022-12-18T17:39:28;101626.50;;;-0.64;57.58
1652;BME280;823;49.028;8.454;2022-12-18T17:44:29;101619.19;;;-0.55;57.63
1652;BME280;823;49.028;8.454;2022-12-18T17:49:30;101620.66;;;-0.62;58.01
1652;BME280;823;49.028;8.454;2022-12-18T17:54:30;101623.66;;;-0.48;57.98
1652;BME280;823;49.028;8.454;2022-12-18T17:59:32;101611.91;;;-0.44;58.02
1652;BME280;823;49.028;8.454;2022-12-18T18:04:32;101605.03;;;-0.47;57.93
1652;BME280;823;49.028;8.454;2022-12-18T18:09:32;101606.00;;;-0.43;58.25
1652;BME280;823;49.028;8.454;2022-12-18T18:14:33;101619.31;;;-0.50;58.39
1652;BME280;823;49.028;8.454;2022-12-18T18:19:33;101638.91;;;-0.48;58.29
1652;BME280;823;49.028;8.454;2022-12-18T18:24:33;101633.69;;;-0.53;58.56
1652;BME280;823;49.028;8.454;2022-12-18T18:29:33;101628.47;;;-0.56;58.40
1652;BME280;823;49.028;8.454;2022-12-18T18:34:34;101627.72;;;-0.53;58.67
1652;BME280;823;49.028;8.454;2022-12-18T18:39:34;101622.66;;;-0.52;58.38
1652;BME280;823;49.028;8.454;2022-12-18T18:44:35;101610.88;;;-0.49;58.38
1652;BME280;823;49.028;8.454;2022-12-18T18:49:35;101589.50;;;-0.56;58.45
1652;BME280;823;49.028;8.454;2022-12-18T18:54:36;101585.78;;;-0.66;58.78
1652;BME280;823;49.028;8.454;2022-12-18T18:59:36;101575.78;;;-0.61;58.65
1652;BME280;823;49.028;8.454;2022-12-18T19:04:37;101567.09;;;-0.68;58.78
1652;BME280;823;49.028;8.454;2022-12-18T19:09:37;101569.97;;;-0.57;58.46
1652;BME280;823;49.028;8.454;2022-12-18T19:14:37;101566.81;;;-0.50;58.76
1652;BME280;823;49.028;8.454;2022-12-18T19:19:38;101566.97;;;-0.45;58.61
1652;BME280;823;49.028;8.454;2022-12-18T19:24:38;101558.47;;;-0.46;58.91
1652;BME280;823;49.028;8.454;2022-12-18T19:29:39;101558.66;;;-0.40;58.41
1652;BME280;823;49.028;8.454;2022-12-18T19:34:39;101560.44;;;-0.37;58.62
1652;BME280;823;49.028;8.454;2022-12-18T19:39:40;101559.72;;;-0.33;58.74
1652;BME280;823;49.028;8.454;2022-12-18T19:44:40;101564.94;;;-0.28;58.67
1652;BME280;823;49.028;8.454;2022-12-18T19:49:40;101557.34;;;-0.27;58.68
1652;BME280;823;49.028;8.454;2022-12-18T19:54:41;101547.25;;;-0.24;58.27
1652;BME280;823;49.028;8.454;2022-12-18T19:59:41;101538.94;;;-0.18;58.38
1652;BME280;823;49.028;8.454;2022-12-18T20:04:41;101512.28;;;-0.32;58.28
1652;BME280;823;49.028;8.454;2022-12-18T20:09:42;101521.59;;;-0.33;58.13
1652;BME280;823;49.028;8.454;2022-12-18T20:14:42;101554.63;;;-0.33;58.69
1652;BME280;823;49.028;8.454;2022-12-18T20:19:42;101550.66;;;-0.25;58.11
1652;BME280;823;49.028;8.454;2022-12-18T20:24:43;101566.00;;;-0.22;58.13
1652;BME280;823;49.028;8.454;2022-12-18T20:29:43;101546.75;;;-0.13;57.99
1652;BME280;823;49.028;8.454;2022-12-18T20:34:44;101525.59;;;-0.12;57.80
1652;BME280;823;49.028;8.454;2022-12-18T20:39:44;101547.75;;;-0.08;57.79
1652;BME280;823;49.028;8.454;2022-12-18T20:44:44;101554.38;;;-0.13;58.13
1652;BME280;823;49.028;8.454;2022-12-18T20:49:45;101546.06;;;-0.08;58.02
1652;BME280;823;49.028;8.454;2022-12-18T20:54:45;101538.34;;;-0.11;57.87
1652;BME280;823;49.028;8.454;2022-12-18T20:59:45;101550.41;;;-0.04;58.04
1652;BME280;823;49.028;8.454;2022-12-18T21:04:45;101535.16;;;-0.04;57.71
1652;BME280;823;49.028;8.454;2022-12-18T21:09:46;101542.75;;;-0.05;57.87
1652;BME280;823;49.028;8.454;2022-12-18T21:14:46;101528.47;;;0.00;57.92
1652;BME280;823;49.028;8.454;2022-12-18T21:19:47;101539.31;;;-0.06;58.32
1652;BME280;823;49.028;8.454;2022-12-18T21:24:47;101529.38;;;0.02;58.13
1652;BME280;823;49.028;8.454;2022-12-18T21:29:47;101491.59;;;-0.14;58.81
1652;BME280;823;49.028;8.454;2022-12-18T21:34:48;101503.94;;;0.02;58.26
1652;BME280;823;49.028;8.454;2022-12-18T21:39:48;101509.81;;;-0.01;58.51
1652;BME280;823;49.028;8.454;2022-12-18T21:44:48;101517.78;;;0.12;58.25
1652;BME280;823;49.028;8.454;2022-12-18T21:49:52;101512.91;;;0.20;57.86
1652;BME280;823;49.028;8.454;2022-12-18T21:54:52;101500.31;;;0.24;57.96
1652;BME280;823;49.028;8.454;2022-12-18T21:59:53;101483.34;;;0.25;57.82
1652;BME280;823;49.028;8.454;2022-12-18T22:04:53;101531.53;;;0.19;57.93
1652;BME280;823;49.028;8.454;2022-12-18T22:09:53;101519.34;;;0.39;57.52
1652;BME280;823;49.028;8.454;2022-12-18T22:14:54;101529.66;;;0.43;57.72
1652;BME280;823;49.028;8.454;2022-12-18T22:19:54;101535.72;;;0.48;57.30
1652;BME280;823;49.028;8.454;2022-12-18T22:24:54;101532.44;;;0.53;57.18
1652;BME280;823;49.028;8.454;2022-12-18T22:29:55;101530.03;;;0.57;57.47
1652;BME280;823;49.028;8.454;2022-12-18T22:35:04;101529.25;;;0.60;57.42
1652;BME280;823;49.028;8.454;2022-12-18T22:40:05;101555.69;;;0.65;57.35
1652;BME280;823;49.028;8.454;2022-12-18T22:45:06;101544.53;;;0.60;57.39
1652;BME280;823;49.028;8.454;2022-12-18T22:50:07;101563.31;;;0.65;57.12
1652;BME280;823;49.028;8.454;2022-12-18T22:55:07;101549.00;;;0.68;57.32
1652;BME280;823;49.028;8.454;2022-12-18T23:00:08;101545.72;;;0.73;56.96
1652;BME280;823;49.028;8.454;2022-12-18T23:05:09;101550.81;;;0.73;57.07
1652;BME280;823;49.028;8.454;2022-12-18T23:10:09;101546.50;;;0.70;57.15
1652;BME280;823;49.028;8.454;2022-12-18T23:15:09;101537.53;;;0.53;57.50
1652;BME280;823;49.028;8.454;2022-12-18T23:20:10;101539.56;;;0.64;57.29
1652;BME280;823;49.028;8.454;2022-12-18T23:25:10;101532.63;;;0.59;57.53
1652;BME280;823;49.028;8.454;2022-12-18T23:30:11;101519.06;;;0.60;57.68
1652;BME280;823;49.028;8.454;2022-12-18T23:35:11;101524.38;;;0.69;57.25
1652;BME280;823;49.028;8.454;2022-12-18T23:40:12;101511.00;;;0.76;57.38
1652;BME280;823;49.028;8.454;2022-12-18T23:45:12;101493.13;;;0.75;57.60
1652;BME280;823;49.028;8.454;2022-12-18T23:50:13;101498.41;;;0.82;57.81
1652;BME280;823;49.028;8.454;2022-12-18T23:55:13;101496.84;;;0.88;57.77
